Time;durP1;ratioP1;P1;durP2;ratioP2;P2;SDS_P1;SDS_P2;PMS_P1;PMS_P2;Temp;Humidity;BMP_temperature;BMP_pressure;BME280_temperature;BME280_humidity;BME280_pressure;Samples;Min_cycle;Max_cycle;Signal;HPM_P1;HPM_P2
2022/04/21 00:00:24;;;;;;;;;;;;;;;14.05;42.36;100266.38;4980591;28;6876;-75
2022/04/21 00:02:49;;;;;;;;;;;;;;;14.04;42.59;100257.75;4996204;28;6848;-75
2022/04/21 00:05:15;;;;;;;;;;;;;;;14.05;42.04;100258.63;4959995;28;7199;-75
2022/04/21 00:07:41;;;;;;;;;;;;;;;14.05;42.36;100253.47;4999135;28;6776;-75
2022/04/21 00:10:08;;;;;;;;;;;;;;;14.03;42.04;100256.88;4980481;28;6796;-75
2022/04/21 00:12:35;;;;;;;;;;;;;;;14.03;42.59;100258.56;4983399;28;7860;-75
2022/04/21 00:15:02;;;;;;;;;;;;;;;14.01;42.41;100252.50;4982919;28;6971;-75
2022/04/21 00:17:28;;;;;;;;;;;;;;;14.00;41.92;100250.75;4983006;28;10593;-75
2022/04/21 00:19:54;;;;;;;;;;;;;;;13.99;42.66;100247.28;4981131;28;6811;-75
2022/04/21 00:25:05;;;;;;;;;;;;;;;13.96;42.69;100243.78;4982045;28;6904;-76
2022/04/21 00:27:40;;;;;;;;;;;;;;;13.92;42.58;100237.66;4983793;28;7048;-76
2022/04/21 00:30:07;;;;;;;;;;;;;;;13.89;42.86;100240.09;4965330;28;7246;-76
2022/04/21 00:32:36;;;;;;;;;;;;;;;13.85;43.14;100235.69;4980457;28;6808;-76
2022/04/21 00:35:03;;;;;;;;;;;;;;;13.80;42.14;100237.22;4964793;28;6836;-76
2022/04/21 00:37:29;;;;;;;;;;;;;;;13.73;42.67;100231.00;4980330;28;6860;-75
2022/04/21 00:39:55;;;;;;;;;;;;;;;13.69;43.18;100236.91;4983276;28;6960;-75
2022/04/21 00:42:21;;;;;;;;;;;;;;;13.66;43.35;100235.09;4963741;28;7295;-76
2022/04/21 00:44:49;;;;;;;;;;;;;;;13.61;42.77;100234.06;4980914;28;6792;-76
2022/04/21 00:47:18;;;;;;;;;;;;;;;13.59;42.91;100231.44;4995557;28;6996;-75
2022/04/21 00:49:48;;;;;;;;;;;;;;;13.58;43.28;100226.25;4981899;28;7027;-75
2022/04/21 00:52:15;;;;;;;;;;;;;;;13.57;43.52;100227.97;4980629;28;6808;-75
2022/04/21 00:54:42;;;;;;;;;;;;;;;13.56;42.84;100233.03;4981086;28;7864;-75
2022/04/21 00:57:09;;;;;;;;;;;;;;;13.55;43.68;100223.56;4984417;28;7257;-75
2022/04/21 00:59:35;;;;;;;;;;;;;;;13.56;42.84;100230.47;4968459;28;6883;-75
2022/04/21 01:04:48;;;;;;;;;;;;;;;13.53;43.05;100231.25;4982113;28;6958;-75
2022/04/21 01:07:14;;;;;;;;;;;;;;;13.54;43.83;100222.69;4986200;28;6804;-75
2022/04/21 01:09:40;;;;;;;;;;;;;;;13.55;42.76;100221.84;4997826;28;6788;-76
2022/04/21 01:12:09;;;;;;;;;;;;;;;13.56;43.43;100223.59;4983793;28;7141;-76
2022/04/21 01:14:38;;;;;;;;;;;;;;;13.57;43.46;100227.06;4985933;28;6807;-76
2022/04/21 01:17:09;;;;;;;;;;;;;;;13.56;43.10;100227.91;5001293;28;7244;-76
2022/04/21 01:19:35;;;;;;;;;;;;;;;13.53;42.74;100231.25;4986883;28;6804;-75
2022/04/21 01:22:01;;;;;;;;;;;;;;;13.49;42.97;100226.81;4987640;28;6811;-75
2022/04/21 01:24:26;;;;;;;;;;;;;;;13.44;43.39;100229.25;4983703;28;6799;-75
2022/04/21 01:26:54;;;;;;;;;;;;;;;13.42;43.87;100229.97;5000500;28;7968;-75
2022/04/21 01:29:20;;;;;;;;;;;;;;;13.38;43.37;100229.00;4986508;28;6894;-75
2022/04/21 01:31:46;;;;;;;;;;;;;;;13.37;43.67;100226.34;4984480;28;7078;-75
2022/04/21 01:34:11;;;;;;;;;;;;;;;13.35;43.37;100226.31;4983391;28;6791;-75
2022/04/21 01:41:08;;;;;;;;;;;;;;;13.34;43.10;100229.72;5001999;28;7222;-75
2022/04/21 01:42:14;;;;;;;;;;;;;;;13.30;43.13;100225.28;4986003;28;7101;-76
2022/04/21 01:44:40;;;;;;;;;;;;;;;13.29;43.42;100228.69;4986404;28;7852;-76
2022/04/21 01:47:06;;;;;;;;;;;;;;;13.27;43.54;100215.75;4983376;28;6784;-76
2022/04/21 01:49:32;;;;;;;;;;;;;;;13.26;43.99;100223.44;5001348;28;6788;-76
2022/04/21 01:51:57;;;;;;;;;;;;;;;13.27;43.64;100220.03;4986230;28;6811;-76
2022/04/21 01:54:23;;;;;;;;;;;;;;;13.25;44.21;100224.25;4983526;28;6787;-76
2022/04/21 01:56:49;;;;;;;;;;;;;;;13.24;44.06;100217.38;4980125;28;6866;-75
2022/04/21 01:59:14;;;;;;;;;;;;;;;13.22;43.92;100219.88;4983627;28;6875;-75
2022/04/21 02:01:40;;;;;;;;;;;;;;;13.21;44.21;100218.13;4983955;28;6811;-75
2022/04/21 02:04:06;;;;;;;;;;;;;;;13.18;43.40;100220.59;5001153;28;8199;-75
2022/04/21 02:06:31;;;;;;;;;;;;;;;13.14;44.27;100214.47;4986105;28;6898;-75
2022/04/21 02:08:58;;;;;;;;;;;;;;;13.11;43.68;100211.78;4981859;28;7428;-75
2022/04/21 02:11:24;;;;;;;;;;;;;;;13.08;44.44;100216.84;4979826;28;6819;-75
2022/04/21 02:13:52;;;;;;;;;;;;;;;13.02;44.44;100207.19;4966514;28;6824;-75
2022/04/21 02:16:18;;;;;;;;;;;;;;;12.98;44.24;100209.63;4983425;28;6985;-75
2022/04/21 02:18:43;;;;;;;;;;;;;;;12.91;44.38;100203.38;4983770;28;7136;-75
2022/04/21 02:21:09;;;;;;;;;;;;;;;12.83;44.70;100207.38;4984916;28;6969;-75
2022/04/21 02:23:35;;;;;;;;;;;;;;;12.76;44.80;100214.00;4983171;28;6816;-75
2022/04/21 02:26:00;;;;;;;;;;;;;;;12.70;44.70;100221.47;4966528;28;6887;-75
2022/04/21 02:28:26;;;;;;;;;;;;;;;12.63;45.05;100217.81;4982551;28;6779;-75
2022/04/21 02:30:52;;;;;;;;;;;;;;;12.59;44.90;100214.25;4983454;28;7016;-75
2022/04/21 02:33:17;;;;;;;;;;;;;;;12.53;44.89;100213.16;4987359;28;6919;-75
2022/04/21 02:35:45;;;;;;;;;;;;;;;12.49;44.58;100207.03;4967414;28;6792;-75
2022/04/21 02:38:10;;;;;;;;;;;;;;;12.44;45.10;100204.28;4984394;28;6804;-75
2022/04/21 02:40:36;;;;;;;;;;;;;;;12.40;44.78;100206.69;4984215;28;7154;-75
2022/04/21 02:43:02;;;;;;;;;;;;;;;12.34;45.07;100199.63;4983885;28;6807;-75
2022/04/21 02:45:27;;;;;;;;;;;;;;;12.30;45.06;100203.75;4981003;28;6796;-75
2022/04/21 02:47:53;;;;;;;;;;;;;;;12.28;45.24;100207.97;4985188;28;6783;-75
2022/04/21 02:50:19;;;;;;;;;;;;;;;12.24;45.59;100200.09;4984636;28;6796;-75
2022/04/21 02:52:47;;;;;;;;;;;;;;;12.20;45.77;100205.09;4982900;28;6966;-75
2022/04/21 02:57:59;;;;;;;;;;;;;;;12.15;45.65;100203.16;4983699;28;6903;-75
2022/04/21 03:00:25;;;;;;;;;;;;;;;12.14;45.93;100201.41;4990284;28;6837;-75
2022/04/21 03:02:51;;;;;;;;;;;;;;;12.13;45.99;100204.81;4984519;28;6800;-74
2022/04/21 03:05:16;;;;;;;;;;;;;;;12.13;45.95;100203.13;4966052;28;7058;-74
2022/04/21 03:07:43;;;;;;;;;;;;;;;12.14;46.10;100209.13;4997071;28;6995;-74
2022/04/21 03:10:11;;;;;;;;;;;;;;;12.14;45.99;100204.88;4997162;28;6802;-74
2022/04/21 03:12:36;;;;;;;;;;;;;;;12.15;45.72;100195.47;4999070;28;6956;-74
2022/04/21 03:15:03;;;;;;;;;;;;;;;12.16;45.93;100202.34;4995768;28;8672;-74
2022/04/21 03:17:29;;;;;;;;;;;;;;;12.14;45.74;100204.88;4973742;28;6800;-74
2022/04/21 03:19:55;;;;;;;;;;;;;;;12.11;46.00;100193.59;4996485;28;6796;-74
2022/04/21 03:25:10;;;;;;;;;;;;;;;12.03;45.78;100201.03;5000109;28;7149;-74
2022/04/21 03:27:56;;;;;;;;;;;;;;;12.02;46.43;100205.28;4994059;28;6796;-74
2022/04/21 03:30:22;;;;;;;;;;;;;;;11.98;46.22;100199.94;5010663;28;6791;-74
2022/04/21 03:32:47;;;;;;;;;;;;;;;11.97;46.48;100198.19;4999171;28;6796;-74
2022/04/21 03:35:16;;;;;;;;;;;;;;;11.98;46.53;100203.38;4997876;28;7124;-74
2022/04/21 03:37:43;;;;;;;;;;;;;;;12.00;46.47;100200.84;4996203;28;6958;-74
2022/04/21 03:40:22;;;;;;;;;;;;;;;12.00;46.41;100203.41;4976986;28;7967;-74
2022/04/21 03:43:02;;;;;;;;;;;;;;;12.03;46.50;100217.28;5000433;28;6800;-74
2022/04/21 03:45:29;;;;;;;;;;;;;;;12.00;46.31;100203.41;4992550;28;7003;-74
2022/04/21 03:47:54;;;;;;;;;;;;;;;12.04;46.48;100213.91;4995051;28;6956;-75
2022/04/21 03:50:20;;;;;;;;;;;;;;;12.02;46.67;100207.84;4993971;28;6775;-75
2022/04/21 03:52:46;;;;;;;;;;;;;;;12.00;46.09;100212.03;4964899;28;8396;-75
2022/04/21 03:55:12;;;;;;;;;;;;;;;11.97;46.54;100216.16;4998249;28;6916;-75
2022/04/21 03:57:37;;;;;;;;;;;;;;;11.93;46.18;100213.47;4995067;28;6819;-75
2022/04/21 04:00:04;;;;;;;;;;;;;;;11.86;46.43;100211.47;4964488;28;7368;-75
2022/04/21 04:02:30;;;;;;;;;;;;;;;11.79;45.91;100212.94;4980517;28;7512;-75
2022/04/21 04:04:55;;;;;;;;;;;;;;;11.74;46.50;100211.84;4980470;28;7300;-75
2022/04/21 04:12:50;;;;;;;;;;;;;;;11.45;46.64;100220.94;4983963;28;6916;-74
2022/04/21 04:15:56;;;;;;;;;;;;;;;11.36;46.75;100226.56;4993132;28;6907;-74
2022/04/21 04:18:23;;;;;;;;;;;;;;;11.24;47.04;100225.22;4995833;28;7061;-74
2022/04/21 04:20:49;;;;;;;;;;;;;;;11.18;47.21;100230.09;4981061;28;6975;-74
2022/04/21 04:23:19;;;;;;;;;;;;;;;11.12;47.44;100224.72;4996412;28;6821;-74
2022/04/21 04:25:46;;;;;;;;;;;;;;;11.05;47.21;100223.56;4965634;28;6997;-74
2022/04/21 04:28:12;;;;;;;;;;;;;;;11.00;47.61;100232.75;4993800;28;6967;-74
2022/04/21 04:30:42;;;;;;;;;;;;;;;10.91;47.72;100233.25;4978988;28;6816;-74
2022/04/21 04:33:08;;;;;;;;;;;;;;;10.84;47.40;100231.19;4996160;28;7045;-74
2022/04/21 04:35:34;;;;;;;;;;;;;;;10.77;48.06;100235.19;4985261;28;7168;-74
2022/04/21 04:38:00;;;;;;;;;;;;;;;10.70;47.38;100234.00;4996633;28;7220;-74
2022/04/21 04:40:26;;;;;;;;;;;;;;;10.66;47.77;100231.25;5002225;28;7891;-74
2022/04/21 04:43:01;;;;;;;;;;;;;;;10.63;48.38;100234.56;5001359;28;6847;-74
2022/04/21 04:48:11;;;;;;;;;;;;;;;10.56;48.16;100230.81;4997402;28;6895;-74
2022/04/21 04:50:36;;;;;;;;;;;;;;;10.55;48.95;100243.59;4996972;28;7149;-74
2022/04/21 04:53:02;;;;;;;;;;;;;;;10.54;48.74;100239.28;5000369;28;6991;-74
2022/04/21 04:55:30;;;;;;;;;;;;;;;10.54;48.69;100249.53;5001401;28;6777;-74
2022/04/21 04:57:57;;;;;;;;;;;;;;;10.53;49.35;100242.66;4997184;28;6808;-74
2022/04/21 05:00:24;;;;;;;;;;;;;;;10.55;48.77;100243.59;5002031;28;6783;-74
2022/04/21 05:02:50;;;;;;;;;;;;;;;10.54;48.78;100242.69;4999273;28;6789;-74
2022/04/21 05:05:16;;;;;;;;;;;;;;;10.56;49.51;100245.34;5000215;28;6780;-74
2022/04/21 05:07:41;;;;;;;;;;;;;;;10.60;48.82;100236.97;4997309;28;6803;-74
2022/04/21 05:10:08;;;;;;;;;;;;;;;10.62;49.72;100235.38;4999754;28;7198;-74
2022/04/21 05:12:34;;;;;;;;;;;;;;;10.68;49.67;100235.63;4993883;28;6780;-74
2022/04/21 05:15:01;;;;;;;;;;;;;;;10.74;49.95;100241.88;4997920;28;6790;-74
2022/04/21 05:17:27;;;;;;;;;;;;;;;10.81;49.98;100242.19;4968831;28;8725;-74
2022/04/21 05:19:53;;;;;;;;;;;;;;;10.90;50.06;100240.84;5000106;28;6795;-74
2022/04/21 05:22:34;;;;;;;;;;;;;;;10.97;49.50;100237.75;5014594;28;7847;-74
2022/04/21 05:25:04;;;;;;;;;;;;;;;11.04;49.67;100233.75;4999478;28;6938;-74
2022/04/21 05:27:46;;;;;;;;;;;;;;;11.12;49.57;100234.97;4995775;28;6816;-74
2022/04/21 05:32:58;;;;;;;;;;;;;;;11.29;49.64;100229.66;4997927;28;6872;-74
2022/04/21 05:35:24;;;;;;;;;;;;;;;11.39;49.52;100232.69;4998630;28;6816;-74
2022/04/21 05:37:50;;;;;;;;;;;;;;;11.50;49.63;100229.69;4989326;28;7082;-75
2022/04/21 05:40:17;;;;;;;;;;;;;;;11.62;49.43;100226.75;4992285;28;6788;-74
2022/04/21 05:42:49;;;;;;;;;;;;;;;11.72;49.68;100221.19;4977658;28;7270;-74
2022/04/21 05:45:31;;;;;;;;;;;;;;;11.86;49.27;100214.03;4996837;28;7053;-74
2022/04/21 05:47:57;;;;;;;;;;;;;;;11.97;49.11;100217.00;5010573;28;6981;-74
2022/04/21 05:50:25;;;;;;;;;;;;;;;12.08;48.78;100209.78;5008864;28;6884;-74
2022/04/21 05:52:55;;;;;;;;;;;;;;;12.21;49.29;100206.84;4990922;28;6792;-74
2022/04/21 05:55:21;;;;;;;;;;;;;;;12.33;49.17;100211.59;4985682;28;7289;-74
2022/04/21 05:57:47;;;;;;;;;;;;;;;12.47;48.78;100206.97;4993990;28;6863;-74
2022/04/21 06:00:15;;;;;;;;;;;;;;;12.62;48.81;100216.06;4995330;28;6942;-74
2022/04/21 06:02:41;;;;;;;;;;;;;;;12.74;48.04;100210.47;4993064;28;7003;-75
2022/04/21 06:05:07;;;;;;;;;;;;;;;12.87;48.40;100210.13;4974374;28;10512;-75
2022/04/21 06:07:32;;;;;;;;;;;;;;;12.97;48.21;100205.28;4977920;28;7321;-75
2022/04/21 06:09:58;;;;;;;;;;;;;;;13.07;47.72;100202.22;4993623;28;6780;-75
2022/04/21 06:12:25;;;;;;;;;;;;;;;13.17;47.85;100199.13;5011706;28;6811;-75
2022/04/21 06:14:52;;;;;;;;;;;;;;;13.28;47.73;100206.34;4996897;28;6800;-75
2022/04/21 06:17:28;;;;;;;;;;;;;;;13.39;47.83;100206.72;4997226;28;6800;-75
2022/04/21 06:19:55;;;;;;;;;;;;;;;13.46;47.95;100201.84;4995657;28;6950;-75
2022/04/21 06:22:20;;;;;;;;;;;;;;;13.55;47.77;100197.81;4996951;28;7015;-75
2022/04/21 06:24:46;;;;;;;;;;;;;;;13.64;48.01;100199.81;5014518;28;6845;-75
2022/04/21 06:27:12;;;;;;;;;;;;;;;13.71;48.25;100194.94;4994532;28;6756;-75
2022/04/21 06:29:37;;;;;;;;;;;;;;;13.81;47.65;100196.06;4975429;28;6921;-75
2022/04/21 06:32:03;;;;;;;;;;;;;;;13.91;47.31;100194.69;5003792;28;6899;-75
2022/04/21 06:34:29;;;;;;;;;;;;;;;13.98;47.09;100191.44;4986870;28;6872;-75
2022/04/21 06:36:55;;;;;;;;;;;;;;;14.06;47.13;100188.22;4983998;28;6914;-75
2022/04/21 06:39:20;;;;;;;;;;;;;;;14.15;46.54;100194.56;4983645;28;6783;-75
2022/04/21 06:41:46;;;;;;;;;;;;;;;14.25;45.96;100189.69;4984905;28;6791;-75
2022/04/21 06:49:40;;;;;;;;;;;;;;;14.52;46.57;100191.28;4987563;28;6816;-74
2022/04/21 06:52:06;;;;;;;;;;;;;;;14.63;46.32;100186.44;4989729;28;6852;-74
2022/04/21 06:54:32;;;;;;;;;;;;;;;14.75;45.91;100191.09;4974083;28;8424;-74
2022/04/21 06:56:58;;;;;;;;;;;;;;;14.84;45.95;100192.22;4989467;28;6807;-74
2022/04/21 06:59:23;;;;;;;;;;;;;;;14.96;44.90;100191.69;4984968;28;6791;-75
2022/04/21 07:01:49;;;;;;;;;;;;;;;15.07;45.54;100193.66;4987905;28;6784;-75
2022/04/21 07:04:15;;;;;;;;;;;;;;;15.14;45.01;100198.16;4982202;28;7154;-75
2022/04/21 07:06:41;;;;;;;;;;;;;;;15.20;44.45;100198.31;4990618;28;6855;-75
2022/04/21 07:09:07;;;;;;;;;;;;;;;15.27;45.02;100200.22;4991438;28;6780;-75
2022/04/21 07:11:34;;;;;;;;;;;;;;;15.37;44.73;100209.09;4988227;28;6965;-75
2022/04/21 07:14:00;;;;;;;;;;;;;;;15.44;43.91;100206.63;5005595;28;6796;-75
2022/04/21 07:16:25;;;;;;;;;;;;;;;15.53;44.33;100205.16;4988071;28;7824;-75
2022/04/21 07:18:51;;;;;;;;;;;;;;;15.61;43.99;100201.91;4987757;28;6811;-75
2022/04/21 07:21:17;;;;;;;;;;;;;;;15.67;44.43;100202.03;4990181;28;7168;-75
2022/04/21 07:23:43;;;;;;;;;;;;;;;15.76;44.29;100214.31;5006122;28;6851;-75
2022/04/21 07:26:08;;;;;;;;;;;;;;;15.83;44.34;100209.31;5005133;28;6879;-75
2022/04/21 07:28:34;;;;;;;;;;;;;;;15.90;43.31;100212.94;4988637;28;6991;-75
2022/04/21 07:31:01;;;;;;;;;;;;;;;15.99;43.72;100207.13;4990730;28;6783;-75
2022/04/21 07:33:26;;;;;;;;;;;;;;;16.06;43.83;100205.56;4988680;28;7219;-75
2022/04/21 07:35:52;;;;;;;;;;;;;;;16.11;43.65;100203.91;4990084;28;6874;-75
2022/04/21 07:38:18;;;;;;;;;;;;;;;16.13;43.27;100207.44;4974048;28;6948;-75
2022/04/21 07:40:43;;;;;;;;;;;;;;;16.17;43.24;100204.06;4990205;28;7146;-75
2022/04/21 07:43:09;;;;;;;;;;;;;;;16.22;42.63;100197.31;4991499;28;7016;-75
2022/04/21 07:45:40;;;;;;;;;;;;;;;16.30;42.63;100194.88;4988858;28;6974;-75
2022/04/21 07:48:06;;;;;;;;;;;;;;;16.39;42.15;100194.19;4991223;28;6808;-75
2022/04/21 07:50:32;;;;;;;;;;;;;;;16.47;42.10;100196.94;4991295;28;7157;-75
2022/04/21 07:53:13;;;;;;;;;;;;;;;16.54;42.21;100200.53;4991623;28;7091;-75
2022/04/21 07:55:44;;;;;;;;;;;;;;;16.60;42.18;100198.94;5005011;28;6869;-75
2022/04/21 07:58:10;;;;;;;;;;;;;;;16.70;42.31;100196.53;4992216;28;7296;-75
2022/04/21 08:00:40;;;;;;;;;;;;;;;16.79;41.90;100197.56;4973426;28;6954;-75
2022/04/21 08:03:09;;;;;;;;;;;;;;;16.87;41.55;100199.44;4976256;28;6824;-75
2022/04/21 08:05:35;;;;;;;;;;;;;;;16.92;41.27;100190.91;4990368;28;6812;-75
2022/04/21 08:08:03;;;;;;;;;;;;;;;16.97;41.34;100187.53;5008938;28;6990;-75
2022/04/21 08:10:29;;;;;;;;;;;;;;;17.04;41.25;100187.69;4981284;28;6890;-75
2022/04/21 08:12:59;;;;;;;;;;;;;;;17.14;41.17;100187.88;4961892;28;7002;-75
2022/04/21 08:15:31;;;;;;;;;;;;;;;17.23;40.81;100192.31;4995561;28;7161;-75
2022/04/21 08:18:03;;;;;;;;;;;;;;;17.33;40.79;100197.69;4997892;28;6800;-75
2022/04/21 08:20:32;;;;;;;;;;;;;;;17.46;40.82;100192.72;4976478;28;7212;-75
2022/04/21 08:22:58;;;;;;;;;;;;;;;17.56;40.14;100194.59;5012044;28;6804;-75
2022/04/21 08:33:37;;;;;;;;;;;;;;;17.98;39.39;100197.84;4986407;28;6911;-75
2022/04/21 08:36:03;;;;;;;;;;;;;;;18.11;39.20;100178.16;4988409;28;6788;-75
2022/04/21 08:38:30;;;;;;;;;;;;;;;18.25;38.83;100180.06;4986590;28;6970;-75
2022/04/21 08:40:59;;;;;;;;;;;;;;;18.34;38.85;100177.59;4987143;28;6807;-75
2022/04/21 08:43:27;;;;;;;;;;;;;;;18.43;38.64;100175.09;4984791;28;6815;-75
2022/04/21 08:45:55;;;;;;;;;;;;;;;18.52;38.70;100173.47;4987305;28;6795;-75
2022/04/21 08:48:24;;;;;;;;;;;;;;;18.60;38.93;100166.66;4985800;28;7291;-75
2022/04/21 08:50:51;;;;;;;;;;;;;;;18.67;38.15;100167.59;4986452;28;6891;-75
2022/04/21 08:53:20;;;;;;;;;;;;;;;18.77;38.37;100169.41;4986707;28;7090;-75
2022/04/21 08:55:48;;;;;;;;;;;;;;;18.84;38.38;100171.22;4978552;28;6907;-75
2022/04/21 08:58:14;;;;;;;;;;;;;;;18.90;37.95;100167.81;4987818;28;6804;-75
2022/04/21 09:00:42;;;;;;;;;;;;;;;18.95;38.06;100168.75;4968769;28;6812;-75
2022/04/21 09:03:11;;;;;;;;;;;;;;;19.01;38.13;100168.81;4984624;28;6804;-75
2022/04/21 09:05:37;;;;;;;;;;;;;;;19.12;37.40;100163.75;4980890;28;6797;-75
2022/04/21 09:08:04;;;;;;;;;;;;;;;19.22;37.77;100167.31;4968392;28;6977;-75
2022/04/21 09:10:32;;;;;;;;;;;;;;;19.34;37.09;100163.06;5001406;28;7623;-75
2022/04/21 09:13:01;;;;;;;;;;;;;;;19.47;37.58;100158.84;4983551;28;6796;-75
2022/04/21 09:15:33;;;;;;;;;;;;;;;19.64;37.38;100158.94;4986405;28;7232;-75
2022/04/21 09:18:18;;;;;;;;;;;;;;;19.91;36.86;100158.25;4984190;28;6808;-75
2022/04/21 09:20:44;;;;;;;;;;;;;;;20.28;36.00;100149.81;4985444;28;6803;-75
2022/04/21 09:23:11;;;;;;;;;;;;;;;20.77;35.64;100145.59;5000802;28;6808;-75
2022/04/21 09:25:49;;;;;;;;;;;;;;;21.39;35.11;100139.56;4985370;28;6796;-75
2022/04/21 09:28:26;;;;;;;;;;;;;;;22.11;34.11;100137.69;5001400;28;6812;-75
2022/04/21 09:30:55;;;;;;;;;;;;;;;22.71;33.13;100129.59;4984121;28;6888;-75
2022/04/21 09:33:33;;;;;;;;;;;;;;;23.11;32.82;100120.59;4986794;28;6990;-75
2022/04/21 09:36:02;;;;;;;;;;;;;;;23.42;31.73;100122.94;5000827;28;6827;-75
2022/04/21 09:38:28;;;;;;;;;;;;;;;23.69;31.87;100123.56;4987493;28;6820;-75
2022/04/21 09:40:54;;;;;;;;;;;;;;;23.97;31.17;100128.47;4986577;28;6784;-75
2022/04/21 09:43:30;;;;;;;;;;;;;;;24.12;30.12;100121.34;5001202;28;6800;-75
2022/04/21 09:46:33;;;;;;;;;;;;;;;24.13;30.31;100123.06;4985280;28;7224;-75
2022/04/21 09:48:59;;;;;;;;;;;;;;;24.11;29.53;100124.84;4982173;28;7231;-75
2022/04/21 09:51:29;;;;;;;;;;;;;;;24.19;29.62;100116.88;4987757;28;6935;-75
2022/04/21 09:54:05;;;;;;;;;;;;;;;24.31;29.59;100110.63;4987316;28;6828;-75
2022/04/21 09:56:39;;;;;;;;;;;;;;;24.37;28.79;100106.16;5002010;28;7050;-75
2022/04/21 09:59:08;;;;;;;;;;;;;;;24.46;29.31;100110.44;4986578;28;6800;-75
2022/04/21 10:01:42;;;;;;;;;;;;;;;24.67;29.07;100114.50;4983508;28;6804;-75
2022/04/21 10:04:13;;;;;;;;;;;;;;;24.67;28.58;100108.38;4985204;28;6800;-75
2022/04/21 10:06:41;;;;;;;;;;;;;;;24.68;28.90;100108.38;4983017;28;7164;-73
2022/04/21 10:09:08;;;;;;;;;;;;;;;24.82;28.47;100102.06;4983824;28;7622;-73
2022/04/21 10:11:38;;;;;;;;;;;;;;;24.98;28.25;100107.06;4982835;28;6796;-75
2022/04/21 10:14:06;;;;;;;;;;;;;;;25.00;27.63;100103.50;4969914;28;7167;-75
2022/04/21 10:16:32;;;;;;;;;;;;;;;25.00;27.47;100100.88;4984384;28;6812;-75
2022/04/21 10:19:00;;;;;;;;;;;;;;;25.05;28.06;100096.44;4981582;28;7796;-75
2022/04/21 10:21:34;;;;;;;;;;;;;;;25.21;27.80;100088.31;4969693;28;6963;-75
2022/04/21 10:24:00;;;;;;;;;;;;;;;25.53;27.79;100089.50;4986396;28;7108;-75
2022/04/21 10:26:42;;;;;;;;;;;;;;;25.98;27.68;100085.13;4985878;28;6820;-75
2022/04/21 10:29:17;;;;;;;;;;;;;;;26.20;27.26;100086.44;4983028;28;6868;-75
2022/04/21 10:31:59;;;;;;;;;;;;;;;26.29;27.29;100079.25;4981409;28;7334;-75
2022/04/21 10:34:36;;;;;;;;;;;;;;;26.52;26.70;100081.34;4984057;28;6815;-75
2022/04/21 10:37:14;;;;;;;;;;;;;;;26.71;26.49;100071.25;4982393;28;6792;-75
2022/04/21 10:40:09;;;;;;;;;;;;;;;27.12;26.11;100067.63;4989041;28;6976;-75
2022/04/21 10:42:54;;;;;;;;;;;;;;;27.55;25.28;100063.88;4981227;28;7474;-75
2022/04/21 10:45:32;;;;;;;;;;;;;;;27.91;25.26;100052.31;4982728;28;6999;-75
2022/04/21 10:48:12;;;;;;;;;;;;;;;28.02;25.11;100052.00;4959074;28;7104;-75
2022/04/21 10:50:43;;;;;;;;;;;;;;;28.05;24.88;100056.31;4985764;28;6788;-75
2022/04/21 10:58:41;;;;;;;;;;;;;;;28.24;23.68;100039.06;4986712;28;6875;-76
2022/04/21 11:01:22;;;;;;;;;;;;;;;28.37;23.06;100036.06;4986004;28;6957;-75
2022/04/21 11:04:11;;;;;;;;;;;;;;;28.63;23.03;100034.31;4982246;28;7129;-75
2022/04/21 11:07:05;;;;;;;;;;;;;;;28.67;22.49;100028.03;4986805;28;7023;-75
2022/04/21 11:09:35;;;;;;;;;;;;;;;28.62;21.91;100022.94;4985359;28;7338;-75
2022/04/21 11:12:04;;;;;;;;;;;;;;;28.58;20.94;100026.56;4984857;28;6807;-75
2022/04/21 11:14:32;;;;;;;;;;;;;;;28.22;20.57;100029.50;4984800;28;6963;-75
2022/04/21 11:17:16;;;;;;;;;;;;;;;27.82;20.29;100023.63;4987721;28;7106;-75
2022/04/21 11:19:54;;;;;;;;;;;;;;;27.49;20.51;100027.16;4994539;28;6867;-76
2022/04/21 11:22:41;;;;;;;;;;;;;;;27.13;20.94;100015.00;4997853;28;6800;-76
2022/04/21 11:25:08;;;;;;;;;;;;;;;26.90;20.50;100020.88;4975891;28;6975;-76
2022/04/21 11:27:42;;;;;;;;;;;;;;;26.86;20.82;100011.31;4992919;28;6800;-76
2022/04/21 11:30:12;;;;;;;;;;;;;;;27.02;20.65;100011.81;5009370;28;6792;-76
2022/04/21 11:32:39;;;;;;;;;;;;;;;27.25;20.38;100007.69;4988172;28;6796;-76
2022/04/21 11:35:06;;;;;;;;;;;;;;;27.36;20.35;100004.75;4988683;28;7126;-76
2022/04/21 11:37:51;;;;;;;;;;;;;;;27.46;20.52;100003.59;4989175;28;6833;-75
2022/04/21 11:40:39;;;;;;;;;;;;;;;27.42;20.66;99988.78;4993017;28;6811;-75
2022/04/21 11:43:15;;;;;;;;;;;;;;;27.68;21.10;99997.72;4992388;28;7039;-75
2022/04/21 11:45:44;;;;;;;;;;;;;;;28.07;20.98;99992.16;4970527;28;6988;-75
2022/04/21 11:48:14;;;;;;;;;;;;;;;28.48;20.83;99985.59;4973717;28;7332;-75
2022/04/21 11:50:47;;;;;;;;;;;;;;;28.98;20.92;99973.44;4990860;28;6808;-76
2022/04/21 11:53:18;;;;;;;;;;;;;;;29.40;20.13;99975.41;4991891;28;6875;-76
2022/04/21 11:55:45;;;;;;;;;;;;;;;29.61;20.33;99967.63;4995174;28;6820;-76
2022/04/21 11:58:12;;;;;;;;;;;;;;;29.74;20.47;99962.72;4993160;28;7004;-76
2022/04/21 12:08:50;;;;;;;;;;;;;;;29.98;20.17;99957.38;4988375;28;6811;-76
2022/04/21 12:11:21;;;;;;;;;;;;;;;29.97;19.73;99961.81;4989195;28;6918;-75
2022/04/21 12:13:49;;;;;;;;;;;;;;;29.61;19.79;99957.06;4961987;28;6993;-75
2022/04/21 12:16:42;;;;;;;;;;;;;;;28.67;20.19;99960.34;4996271;28;6797;-75
2022/04/21 12:19:32;;;;;;;;;;;;;;;27.80;20.91;99955.22;5009514;28;7094;-75
2022/04/21 12:22:13;;;;;;;;;;;;;;;27.17;21.89;99971.06;4978106;28;8370;-75
2022/04/21 12:24:44;;;;;;;;;;;;;;;26.80;22.44;99958.91;4993702;28;7822;-75
2022/04/21 12:27:38;;;;;;;;;;;;;;;26.32;22.47;99958.34;4996971;28;7067;-75
2022/04/21 12:30:11;;;;;;;;;;;;;;;25.76;22.57;99964.84;4994085;28;6982;-75
2022/04/21 12:32:47;;;;;;;;;;;;;;;25.24;23.35;99963.25;4977697;28;6803;-75
2022/04/21 12:35:14;;;;;;;;;;;;;;;24.81;23.92;99962.28;4977555;28;7382;-75
2022/04/21 12:37:44;;;;;;;;;;;;;;;24.44;24.01;99964.66;5005886;28;6792;-75
2022/04/21 12:40:13;;;;;;;;;;;;;;;24.09;24.58;99974.81;4988872;28;7942;-75
2022/04/21 12:42:40;;;;;;;;;;;;;;;23.76;25.33;99972.59;4985957;28;6808;-75
2022/04/21 12:45:08;;;;;;;;;;;;;;;23.51;25.81;99966.84;4984104;28;6879;-75
2022/04/21 12:47:50;;;;;;;;;;;;;;;23.34;26.14;99959.19;4984842;28;6788;-75
2022/04/21 12:50:23;;;;;;;;;;;;;;;23.34;26.63;99960.06;4985746;28;6796;-75
2022/04/21 12:52:50;;;;;;;;;;;;;;;23.47;26.63;99959.91;4987640;28;6796;-75
2022/04/21 12:55:19;;;;;;;;;;;;;;;23.60;26.70;99960.59;4987791;28;6800;-75
2022/04/21 12:58:05;;;;;;;;;;;;;;;23.67;26.34;99959.66;4990733;28;7932;-75
2022/04/21 13:00:34;;;;;;;;;;;;;;;23.67;25.96;99952.69;4988708;28;6861;-75
2022/04/21 13:03:01;;;;;;;;;;;;;;;23.53;25.90;99949.38;4986893;28;6832;-75
2022/04/21 13:05:28;;;;;;;;;;;;;;;23.37;26.35;99948.69;4964293;28;6896;-75
2022/04/21 13:07:53;;;;;;;;;;;;;;;23.36;26.29;99947.81;4985492;28;6976;-75
2022/04/21 13:10:21;;;;;;;;;;;;;;;23.51;25.94;99936.31;4986608;28;6772;-75
2022/04/21 13:12:48;;;;;;;;;;;;;;;23.88;26.03;99942.81;4983771;28;6938;-75
2022/04/21 13:15:14;;;;;;;;;;;;;;;24.36;26.29;99930.75;4984357;28;6809;-75
2022/04/21 13:17:42;;;;;;;;;;;;;;;24.78;26.23;99932.69;4987823;28;6935;-75
2022/04/21 13:20:10;;;;;;;;;;;;;;;25.13;25.20;99932.91;4982785;28;7003;-75
2022/04/21 13:22:36;;;;;;;;;;;;;;;25.19;24.80;99920.53;4988465;28;7050;-75
2022/04/21 13:25:03;;;;;;;;;;;;;;;24.97;24.92;99922.72;4969118;28;6980;-75
2022/04/21 13:27:29;;;;;;;;;;;;;;;24.57;25.10;99919.03;4988153;28;6820;-75
2022/04/21 13:29:55;;;;;;;;;;;;;;;24.24;25.78;99923.97;4984257;28;6796;-75
2022/04/21 13:35:07;;;;;;;;;;;;;;;24.20;26.54;99920.53;4966870;28;8497;-75
2022/04/21 13:37:32;;;;;;;;;;;;;;;24.24;26.37;99922.22;4984794;28;7259;-75
2022/04/21 13:39:58;;;;;;;;;;;;;;;24.35;26.54;99922.03;4987420;28;6804;-75
2022/04/21 13:42:24;;;;;;;;;;;;;;;24.56;26.86;99904.22;4987819;28;6807;-75
2022/04/21 13:44:51;;;;;;;;;;;;;;;24.85;26.17;99902.00;4965667;28;6997;-75
2022/04/21 13:47:18;;;;;;;;;;;;;;;25.10;26.30;99897.97;4984509;28;6879;-75
2022/04/21 13:49:46;;;;;;;;;;;;;;;25.36;25.49;99891.31;4987218;28;6800;-74
2022/04/21 13:52:12;;;;;;;;;;;;;;;25.70;25.83;99896.78;4989298;28;7875;-74